Time;durP1;ratioP1;P1;durP2;ratioP2;P2;SDS_P1;SDS_P2;PMS_P1;PMS_P2;Temp;Humidity;BMP_temperature;BMP_pressure;BME280_temperature;BME280_humidity;BME280_pressure;Samples;Min_cycle;Max_cycle;Signal;HPM_P1;HPM_P2
2021/12/18 00:00:23;;;;;;;4.78;3.88;;;;;;;;;;10490335;28;20049;-87
2021/12/18 00:05:24;;;;;;;6.05;5.07;;;;;;;;;;10458206;28;20025;-86
2021/12/18 00:10:25;;;;;;;8.65;7.55;;;;;;;;;;10478482;28;20037;-86
2021/12/18 00:15:26;;;;;;;7.72;5.80;;;;;;;;;;10470583;28;20517;-86
2021/12/18 00:20:27;;;;;;;;;;;;;;;;;;10462022;28;20047;-86
2021/12/18 00:25:29;;;;;;;3.78;3.10;;;;;;;;;;10459510;28;19944;-86
2021/12/18 00:30:30;;;;;;;3.42;2.88;;;;;;;;;;10479777;28;20486;-87
2021/12/18 00:35:33;;;;;;;2.63;2.17;;;;;;;;;;10477425;28;20029;-86
2021/12/18 00:40:59;;;;;;;4.60;3.33;;;;;;;;;;10458019;28;20509;-86
2021/12/18 00:46:00;;;;;;;3.13;2.58;;;;;;;;;;10458320;28;20483;-86
2021/12/18 00:51:01;;;;;;;3.70;2.83;;;;;;;;;;10475168;28;20037;-86
2021/12/18 00:56:02;;;;;;;3.33;2.25;;;;;;;;;;10458343;28;20044;-86
2021/12/18 01:01:08;;;;;;;1.88;1.48;;;;;;;;;;10458716;28;20033;-86
2021/12/18 01:06:09;;;;;;;3.13;2.50;;;;;;;;;;10456979;28;20398;-87
2021/12/18 01:11:31;;;;;;;3.55;2.80;;;;;;;;;;10474844;28;20033;-88
2021/12/18 01:16:53;;;;;;;2.95;1.85;;;;;;;;;;10456599;28;20033;-87
2021/12/18 01:27:14;;;;;;;3.28;2.67;;;;;;;;;;10476528;28;20033;-87
2021/12/18 01:32:15;;;;;;;4.75;3.42;;;;;;;;;;10456686;28;20133;-86
2021/12/18 01:37:16;;;;;;;3.35;2.20;;;;;;;;;;10456758;28;20036;-86
2021/12/18 01:52:54;;;;;;;3.60;2.50;;;;;;;;;;10471405;28;20037;-86
2021/12/18 01:57:56;;;;;;;6.35;5.40;;;;;;;;;;10456732;28;20047;-86
2021/12/18 02:02:57;;;;;;;3.33;2.67;;;;;;;;;;10456870;28;20028;-86
2021/12/18 02:07:58;;;;;;;5.00;3.58;;;;;;;;;;10450600;28;20454;-86
2021/12/18 02:13:08;;;;;;;2.92;2.38;;;;;;;;;;10454468;28;20027;-86
2021/12/18 02:23:39;;;;;;;3.08;2.10;;;;;;;;;;10472821;28;20032;-86
2021/12/18 02:28:44;;;;;;;2.72;2.10;;;;;;;;;;10477090;28;20028;-84
2021/12/18 02:33:46;;;;;;;2.60;2.08;;;;;;;;;;10455184;28;20051;-86
2021/12/18 02:43:52;;;;;;;3.20;2.40;;;;;;;;;;10475230;28;20471;-86
2021/12/18 02:48:54;;;;;;;3.60;2.60;;;;;;;;;;10449123;28;20479;-86
2021/12/18 02:53:55;;;;;;;3.40;2.75;;;;;;;;;;10448708;28;20040;-86
2021/12/18 02:59:05;;;;;;;4.38;3.10;;;;;;;;;;10483607;28;20051;-81
2021/12/18 03:04:16;;;;;;;5.97;4.22;;;;;;;;;;10496367;28;20021;-80
2021/12/18 03:09:48;;;;;;;4.55;3.22;;;;;;;;;;10499765;28;20063;-86
2021/12/18 03:25:29;;;;;;;4.07;3.05;;;;;;;;;;10478619;28;20051;-86
2021/12/18 03:30:30;;;;;;;2.53;2.10;;;;;;;;;;10458640;28;20044;-87
2021/12/18 03:35:32;;;;;;;2.90;1.73;;;;;;;;;;10458627;28;20036;-86
2021/12/18 03:40:33;;;;;;;3.55;2.42;;;;;;;;;;10478790;28;20096;-87
2021/12/18 03:45:34;;;;;;;3.17;2.55;;;;;;;;;;10457757;28;20033;-86
2021/12/18 03:50:34;;;;;;;1.70;1.30;;;;;;;;;;10455884;28;20104;-86
2021/12/18 03:55:35;;;;;;;5.03;4.07;;;;;;;;;;10475901;28;20443;-86
2021/12/18 04:00:37;;;;;;;2.45;2.00;;;;;;;;;;10463033;28;20059;-86
2021/12/18 04:05:38;;;;;;;3.20;2.33;;;;;;;;;;10458175;28;20048;-86
2021/12/18 04:10:40;;;;;;;3.88;2.65;;;;;;;;;;10451563;28;20067;-85
2021/12/18 04:15:41;;;;;;;3.83;3.00;;;;;;;;;;10462156;28;20041;-86
2021/12/18 04:20:42;;;;;;;4.13;3.10;;;;;;;;;;10454562;28;20115;-86
2021/12/18 04:25:43;;;;;;;2.63;1.90;;;;;;;;;;10459081;28;20123;-87
2021/12/18 04:30:44;;;;;;;2.95;2.15;;;;;;;;;;10457323;28;20049;-86
2021/12/18 04:35:46;;;;;;;2.30;1.70;;;;;;;;;;10463438;28;20041;-87
2021/12/18 04:40:49;;;;;;;3.25;2.60;;;;;;;;;;10468954;28;20135;-86
2021/12/18 04:45:50;;;;;;;2.33;1.52;;;;;;;;;;10470018;28;20037;-86
2021/12/18 04:50:51;;;;;;;3.50;3.00;;;;;;;;;;10470227;28;20037;-87
2021/12/18 04:55:52;;;;;;;3.65;2.72;;;;;;;;;;10460467;28;20037;-87
2021/12/18 05:00:54;;;;;;;2.78;1.95;;;;;;;;;;10456758;28;20123;-86
2021/12/18 05:05:55;;;;;;;2.28;1.80;;;;;;;;;;10462288;28;20039;-87
2021/12/18 05:10:56;;;;;;;3.78;2.92;;;;;;;;;;10477694;28;20087;-87
2021/12/18 05:15:57;;;;;;;3.25;2.40;;;;;;;;;;10459048;28;20065;-86
2021/12/18 05:20:58;;;;;;;4.25;3.28;;;;;;;;;;10459468;28;20033;-86
2021/12/18 05:25:59;;;;;;;3.58;2.80;;;;;;;;;;10457251;28;20629;-86
2021/12/18 05:31:00;;;;;;;2.15;1.63;;;;;;;;;;10457708;28;20044;-86
2021/12/18 05:36:03;;;;;;;2.95;2.30;;;;;;;;;;10456857;28;20037;-87
2021/12/18 05:41:04;;;;;;;2.80;2.00;;;;;;;;;;10456387;28;20033;-87
2021/12/18 05:46:05;;;;;;;2.15;1.60;;;;;;;;;;10456774;28;20139;-87
2021/12/18 05:51:06;;;;;;;2.88;2.05;;;;;;;;;;10473682;28;20059;-87
2021/12/18 05:56:07;;;;;;;2.28;1.33;;;;;;;;;;10456968;28;20076;-86
2021/12/18 06:01:08;;;;;;;1.70;1.45;;;;;;;;;;10456637;28;20112;-86
2021/12/18 06:06:09;;;;;;;2.47;1.50;;;;;;;;;;10452749;28;20124;-87
2021/12/18 06:11:14;;;;;;;1.75;1.40;;;;;;;;;;10449415;28;20037;-86
2021/12/18 06:16:15;;;;;;;2.42;1.35;;;;;;;;;;10458240;28;20503;-86
2021/12/18 06:21:17;;;;;;;1.85;1.40;;;;;;;;;;10453414;28;20033;-86
2021/12/18 06:26:18;;;;;;;2.38;1.77;;;;;;;;;;10453267;28;20091;-86
2021/12/18 06:31:19;;;;;;;3.33;2.20;;;;;;;;;;10452115;28;20037;-86
2021/12/18 06:36:20;;;;;;;4.60;3.05;;;;;;;;;;10452843;28;20056;-86
2021/12/18 06:41:21;;;;;;;3.25;2.05;;;;;;;;;;10452477;28;20180;-87
2021/12/18 06:46:22;;;;;;;5.20;2.90;;;;;;;;;;10451581;28;20044;-86
2021/12/18 06:51:25;;;;;;;3.60;2.50;;;;;;;;;;10451249;28;20107;-86
2021/12/18 06:56:26;;;;;;;2.78;1.73;;;;;;;;;;10451366;28;20039;-86
2021/12/18 07:01:27;;;;;;;5.40;3.78;;;;;;;;;;10468915;28;20068;-87
2021/12/18 07:06:29;;;;;;;2.88;2.13;;;;;;;;;;10473860;28;20472;-86
2021/12/18 07:11:30;;;;;;;2.15;1.48;;;;;;;;;;10452620;28;20483;-86
2021/12/18 07:16:31;;;;;;;4.10;3.05;;;;;;;;;;10451510;28;20033;-87
2021/12/18 07:21:32;;;;;;;2.92;2.15;;;;;;;;;;10468151;28;20476;-87
2021/12/18 07:26:33;;;;;;;7.57;5.47;;;;;;;;;;10452169;28;20126;-86
2021/12/18 07:31:34;;;;;;;4.05;2.35;;;;;;;;;;10468923;28;20048;-87
2021/12/18 07:36:35;;;;;;;6.03;3.17;;;;;;;;;;10468090;28;20037;-86
2021/12/18 07:41:36;;;;;;;6.05;4.15;;;;;;;;;;10472675;28;20168;-87
2021/12/18 07:46:38;;;;;;;4.43;2.05;;;;;;;;;;10449999;28;20092;-86
2021/12/18 07:51:39;;;;;;;4.18;2.17;;;;;;;;;;10452347;28;20153;-87
2021/12/18 07:56:40;;;;;;;4.63;2.90;;;;;;;;;;10456672;28;20025;-87
2021/12/18 08:01:41;;;;;;;5.07;2.60;;;;;;;;;;10457012;28;20134;-87
2021/12/18 08:06:42;;;;;;;3.42;2.63;;;;;;;;;;10455378;28;20040;-89
2021/12/18 08:11:43;;;;;;;5.03;3.00;;;;;;;;;;10459850;28;20067;-86
2021/12/18 08:16:44;;;;;;;4.13;3.25;;;;;;;;;;10463090;28;20039;-85
2021/12/18 08:21:45;;;;;;;3.00;2.45;;;;;;;;;;10470618;28;20034;-83
2021/12/18 08:26:46;;;;;;;3.63;2.67;;;;;;;;;;10452295;28;20490;-85
2021/12/18 08:31:47;;;;;;;4.25;3.00;;;;;;;;;;10461758;22;20084;-84
2021/12/18 08:36:48;;;;;;;4.03;3.17;;;;;;;;;;10420049;28;20042;-84
2021/12/18 08:41:49;;;;;;;4.53;3.53;;;;;;;;;;10422241;28;20168;-84
2021/12/18 08:46:50;;;;;;;6.07;4.50;;;;;;;;;;10415739;28;20038;-85
2021/12/18 08:51:51;;;;;;;7.03;5.50;;;;;;;;;;10414911;28;20029;-85
2021/12/18 08:56:52;;;;;;;6.85;5.45;;;;;;;;;;10413478;28;20033;-85
2021/12/18 09:01:54;;;;;;;9.75;7.60;;;;;;;;;;10413146;28;20105;-85
2021/12/18 09:06:55;;;;;;;7.30;6.10;;;;;;;;;;10416236;28;20068;-85
2021/12/18 09:11:56;;;;;;;7.70;5.95;;;;;;;;;;10413667;28;20128;-86
2021/12/18 09:16:57;;;;;;;6.53;5.25;;;;;;;;;;10413207;28;20057;-85
2021/12/18 09:21:59;;;;;;;7.28;4.65;;;;;;;;;;10418384;28;20061;-83
2021/12/18 09:27:03;;;;;;;8.05;5.68;;;;;;;;;;10416048;28;20033;-84
2021/12/18 09:32:04;;;;;;;6.05;4.97;;;;;;;;;;10420810;28;20044;-85
2021/12/18 09:37:08;;;;;;;5.78;4.50;;;;;;;;;;10421107;28;20061;-86
2021/12/18 09:42:09;;;;;;;5.43;4.28;;;;;;;;;;10420272;28;20402;-83
2021/12/18 09:47:18;;;;;;;7.82;3.75;;;;;;;;;;10415607;28;20047;-86
2021/12/18 09:52:19;;;;;;;4.78;3.33;;;;;;;;;;10412301;28;20048;-86
2021/12/18 09:57:20;;;;;;;4.30;3.00;;;;;;;;;;10412750;28;20029;-85
2021/12/18 10:02:21;;;;;;;4.70;3.40;;;;;;;;;;10416275;28;20101;-86
2021/12/18 10:07:23;;;;;;;4.88;2.60;;;;;;;;;;10414296;28;20432;-84
2021/12/18 10:12:26;;;;;;;6.28;3.85;;;;;;;;;;10420507;28;20034;-84
2021/12/18 10:17:27;;;;;;;5.00;3.25;;;;;;;;;;10416638;28;20184;-84
2021/12/18 10:22:28;;;;;;;4.40;2.60;;;;;;;;;;10414003;28;20049;-85
2021/12/18 10:27:29;;;;;;;4.20;2.38;;;;;;;;;;10415096;28;20053;-84
2021/12/18 10:32:30;;;;;;;5.20;2.10;;;;;;;;;;10415256;28;20097;-85
2021/12/18 10:37:32;;;;;;;3.10;2.00;;;;;;;;;;10414094;28;20407;-85
2021/12/18 10:42:42;;;;;;;2.75;1.88;;;;;;;;;;10414013;28;20056;-84
2021/12/18 10:47:44;;;;;;;2.97;1.90;;;;;;;;;;10414855;28;20037;-85
2021/12/18 10:52:45;;;;;;;6.13;4.00;;;;;;;;;;10414196;28;20061;-84
2021/12/18 10:57:51;;;;;;;4.68;3.65;;;;;;;;;;10412699;28;20068;-85
2021/12/18 11:02:52;;;;;;;3.05;2.25;;;;;;;;;;10414746;28;20041;-85
2021/12/18 11:08:07;;;;;;;3.30;2.28;;;;;;;;;;10415039;28;20188;-83
2021/12/18 11:18:29;;;;;;;3.10;2.13;;;;;;;;;;10436468;28;20049;-85
2021/12/18 11:23:52;;;;;;;6.03;2.55;;;;;;;;;;10423824;28;20065;-84
2021/12/18 11:29:08;;;;;;;4.35;3.17;;;;;;;;;;10435566;28;20495;-86
2021/12/18 11:34:10;;;;;;;9.68;5.55;;;;;;;;;;10435951;28;20037;-87
2021/12/18 11:39:12;;;;;;;5.10;4.00;;;;;;;;;;10416912;28;20041;-89
2021/12/18 11:44:29;;;;;;;4.10;3.00;;;;;;;;;;10415787;28;20037;-84
2021/12/18 11:49:41;;;;;;;3.72;2.95;;;;;;;;;;10421159;28;20081;-86
2021/12/18 11:54:49;;;;;;;3.97;2.90;;;;;;;;;;10438726;28;20113;-86
2021/12/18 12:00:06;;;;;;;4.88;2.70;;;;;;;;;;10420726;28;20101;-85
2021/12/18 12:05:07;;;;;;;3.03;2.55;;;;;;;;;;10419291;28;20124;-85
2021/12/18 12:10:12;;;;;;;4.60;2.45;;;;;;;;;;10417134;28;20041;-86
2021/12/18 12:15:14;;;;;;;3.47;2.53;;;;;;;;;;10419760;28;20026;-87
2021/12/18 12:20:31;;;;;;;3.38;2.25;;;;;;;;;;10417550;28;20033;-86
2021/12/18 12:25:37;;;;;;;4.10;2.17;;;;;;;;;;10415976;28;20037;-86
2021/12/18 12:30:43;;;;;;;3.15;2.08;;;;;;;;;;10423514;28;20049;-87
2021/12/18 12:35:56;;;;;;;4.05;1.98;;;;;;;;;;10420079;28;20085;-87
2021/12/18 12:41:18;;;;;;;3.42;2.20;;;;;;;;;;10425044;28;20042;-85
2021/12/18 12:46:24;;;;;;;5.82;4.45;;;;;;;;;;10369816;28;20065;-86
2021/12/18 12:51:45;;;;;;;2.00;1.60;;;;;;;;;;10423209;28;20025;-85
2021/12/18 12:56:46;;;;;;;;;;;;;;;;;;10413131;28;20582;-85
2021/12/18 13:01:54;;;;;;;3.17;2.22;;;;;;;;;;10413481;28;19916;-85
2021/12/18 13:07:23;;;;;;;3.45;2.53;;;;;;;;;;10413936;28;20490;-88
2021/12/18 13:29:37;;;;;;;3.47;2.38;;;;;;;;;;10470934;28;20119;-84
2021/12/18 13:41:18;;;;;;;2.70;2.03;;;;;;;;;;10517430;28;20036;-84
2021/12/18 13:47:00;;;;;;;4.15;2.97;;;;;;;;;;10510975;28;20047;-84
2021/12/18 13:52:33;;;;;;;3.85;3.00;;;;;;;;;;10477983;28;20064;-84
2021/12/18 13:57:36;;;;;;;4.40;3.30;;;;;;;;;;10496705;28;20392;-84
2021/12/18 14:02:55;;;;;;;3.42;2.47;;;;;;;;;;10493929;28;20413;-87
2021/12/18 14:13:16;;;;;;;3.40;2.55;;;;;;;;;;10514822;28;20032;-84
2021/12/18 14:18:55;;;;;;;6.93;4.95;;;;;;;;;;10502057;28;20036;-86
2021/12/18 14:24:06;;;;;;;6.20;3.15;;;;;;;;;;10518686;28;20104;-85
2021/12/18 14:34:28;;;;;;;6.85;4.82;;;;;;;;;;10513458;22;19921;-84
2021/12/18 14:39:34;;;;;;;4.82;3.17;;;;;;;;;;10469283;28;20084;-83
2021/12/18 14:44:36;;;;;;;4.78;2.80;;;;;;;;;;10463396;28;20033;-83
2021/12/18 14:49:37;;;;;;;4.57;3.45;;;;;;;;;;10464418;28;20044;-83
2021/12/18 14:54:52;;;;;;;4.22;3.28;;;;;;;;;;10461439;28;20025;-83
2021/12/18 15:00:12;;;;;;;3.92;3.13;;;;;;;;;;10462503;28;20362;-84
2021/12/18 15:05:13;;;;;;;4.30;2.80;;;;;;;;;;10462022;28;20100;-84
2021/12/18 15:10:14;;;;;;;3.95;2.60;;;;;;;;;;10457053;28;20449;-83
2021/12/18 15:15:15;;;;;;;2.95;2.13;;;;;;;;;;10452750;28;20037;-83
2021/12/18 15:20:16;;;;;;;2.70;2.10;;;;;;;;;;10476315;28;20044;-83
2021/12/18 15:25:17;;;;;;;3.40;2.42;;;;;;;;;;10466083;28;20060;-83
2021/12/18 15:30:18;;;;;;;2.97;2.20;;;;;;;;;;10461578;28;20037;-84
2021/12/18 15:35:19;;;;;;;2.60;1.83;;;;;;;;;;10460387;28;20104;-84
2021/12/18 15:40:20;;;;;;;2.97;2.10;;;;;;;;;;10458482;28;20036;-84
2021/12/18 15:45:21;;;;;;;3.33;1.98;;;;;;;;;;10459663;28;20491;-84
2021/12/18 15:50:23;;;;;;;2.50;1.70;;;;;;;;;;10459853;28;20037;-84
2021/12/18 15:55:25;;;;;;;2.88;1.85;;;;;;;;;;10478564;28;20033;-84
2021/12/18 16:00:27;;;;;;;5.40;3.78;;;;;;;;;;10457324;28;20037;-83
2021/12/18 16:05:29;;;;;;;2.40;1.92;;;;;;;;;;10455987;28;20037;-83
2021/12/18 16:10:30;;;;;;;2.28;1.65;;;;;;;;;;10459337;28;20037;-84
2021/12/18 16:15:31;;;;;;;2.47;1.80;;;;;;;;;;10462894;28;20025;-84
2021/12/18 16:20:32;;;;;;;2.75;1.77;;;;;;;;;;10458182;28;20033;-83
2021/12/18 16:25:34;;;;;;;3.53;2.50;;;;;;;;;;10478172;28;20036;-84
2021/12/18 16:30:35;;;;;;;2.45;1.58;;;;;;;;;;10460705;28;20037;-84
2021/12/18 16:35:37;;;;;;;2.00;1.50;;;;;;;;;;10459090;28;20041;-85
2021/12/18 16:40:39;;;;;;;2.22;1.40;;;;;;;;;;10459093;28;20501;-85
2021/12/18 16:45:41;;;;;;;1.90;1.33;;;;;;;;;;10461245;28;20044;-83
2021/12/18 16:50:42;;;;;;;2.03;1.38;;;;;;;;;;10460722;28;20041;-85
2021/12/18 16:55:43;;;;;;;3.20;1.75;;;;;;;;;;10460812;28;20120;-84
2021/12/18 17:00:44;;;;;;;2.10;1.42;;;;;;;;;;10457402;28;20136;-84
2021/12/18 17:05:45;;;;;;;2.22;1.50;;;;;;;;;;10455104;28;20040;-84
2021/12/18 17:10:46;;;;;;;2.05;1.52;;;;;;;;;;10470349;28;20067;-83
2021/12/18 17:15:47;;;;;;;2.33;1.80;;;;;;;;;;10450479;28;20072;-83
2021/12/18 17:20:48;;;;;;;1.80;1.15;;;;;;;;;;10475249;28;20041;-82
2021/12/18 17:25:49;;;;;;;1.80;1.48;;;;;;;;;;10461280;28;20033;-82
2021/12/18 17:30:51;;;;;;;2.58;1.90;;;;;;;;;;10478415;28;20044;-86
2021/12/18 17:35:52;;;;;;;2.80;1.90;;;;;;;;;;10459895;28;20045;-88
2021/12/18 17:40:53;;;;;;;2.00;1.40;;;;;;;;;;10452774;28;20044;-84
2021/12/18 17:45:54;;;;;;;2.80;1.70;;;;;;;;;;10471792;28;20399;-85
2021/12/18 17:50:55;;;;;;;2.05;1.50;;;;;;;;;;10455215;28;20033;-86
2021/12/18 17:55:58;;;;;;;7.35;6.35;;;;;;;;;;10454369;28;20037;-84
2021/12/18 18:00:59;;;;;;;3.40;1.90;;;;;;;;;;10454721;28;20033;-87
2021/12/18 18:06:00;;;;;;;2.47;1.88;;;;;;;;;;10452473;28;20037;-85
2021/12/18 18:11:01;;;;;;;2.63;1.90;;;;;;;;;;10450759;28;20033;-85
2021/12/18 18:16:03;;;;;;;2.40;1.52;;;;;;;;;;10450390;28;20033;-84
2021/12/18 18:21:04;;;;;;;3.70;1.73;;;;;;;;;;10450238;28;20029;-85
2021/12/18 18:26:05;;;;;;;2.78;1.95;;;;;;;;;;10454792;28;20049;-85
2021/12/18 18:31:08;;;;;;;3.60;2.95;;;;;;;;;;10470621;28;20041;-84
2021/12/18 18:36:09;;;;;;;2.92;1.80;;;;;;;;;;10451142;28;20087;-85
2021/12/18 18:41:11;;;;;;;2.45;1.92;;;;;;;;;;10450295;28;20033;-86
2021/12/18 18:46:27;;;;;;;3.10;2.40;;;;;;;;;;10451264;28;20032;-86
2021/12/18 18:51:29;;;;;;;3.78;2.88;;;;;;;;;;10452198;28;20455;-86
2021/12/18 18:56:30;;;;;;;2.95;2.17;;;;;;;;;;10455579;28;20052;-85
2021/12/18 19:01:31;;;;;;;4.13;3.47;;;;;;;;;;10452699;28;20025;-86
2021/12/18 19:06:33;;;;;;;2.38;2.10;;;;;;;;;;10451254;28;20041;-85
2021/12/18 19:11:34;;;;;;;3.10;2.47;;;;;;;;;;10480017;28;20013;-84
2021/12/18 19:16:37;;;;;;;2.38;2.00;;;;;;;;;;10484932;28;20061;-84
2021/12/18 19:21:38;;;;;;;2.88;2.28;;;;;;;;;;10461159;28;20017;-84
2021/12/18 19:26:39;;;;;;;3.03;2.28;;;;;;;;;;10450681;28;20072;-83
2021/12/18 19:31:42;;;;;;;4.80;3.72;;;;;;;;;;10470236;28;20561;-84
2021/12/18 19:36:45;;;;;;;2.20;1.90;;;;;;;;;;10455337;28;20087;-84
2021/12/18 19:41:47;;;;;;;3.42;2.67;;;;;;;;;;10451019;28;20025;-84
2021/12/18 19:46:48;;;;;;;2.75;2.45;;;;;;;;;;10452577;28;20041;-84
2021/12/18 19:51:50;;;;;;;3.10;2.63;;;;;;;;;;10456671;28;20376;-82
2021/12/18 19:56:52;;;;;;;3.20;2.40;;;;;;;;;;10460652;28;20029;-84
2021/12/18 20:02:01;;;;;;;3.35;1.60;;;;;;;;;;10476460;28;20087;-84
2021/12/18 20:07:02;;;;;;;2.83;2.50;;;;;;;;;;10471932;28;20383;-83
2021/12/18 20:12:04;;;;;;;2.72;2.33;;;;;;;;;;10453928;28;20029;-84
2021/12/18 20:17:06;;;;;;;3.67;3.15;;;;;;;;;;10453908;28;20045;-83
2021/12/18 20:22:07;;;;;;;4.45;3.95;;;;;;;;;;10472085;28;20486;-82
2021/12/18 20:27:08;;;;;;;3.60;3.00;;;;;;;;;;10455969;28;20037;-85
2021/12/18 20:32:10;;;;;;;3.08;2.45;;;;;;;;;;10487656;22;20140;-85
2021/12/18 20:37:12;;;;;;;2.80;2.47;;;;;;;;;;10424191;28;20118;-86
2021/12/18 20:42:13;;;;;;;5.07;3.30;;;;;;;;;;10402844;28;20040;-86
2021/12/18 20:47:14;;;;;;;4.15;3.60;;;;;;;;;;10416473;28;20049;-85
2021/12/18 20:52:15;;;;;;;3.38;2.30;;;;;;;;;;10417781;28;20021;-85
2021/12/18 20:57:16;;;;;;;3.53;3.10;;;;;;;;;;10419067;28;20048;-85
2021/12/18 21:02:18;;;;;;;4.35;2.95;;;;;;;;;;10416305;28;20079;-86
2021/12/18 21:07:20;;;;;;;5.55;3.45;;;;;;;;;;10420228;28;20038;-86
2021/12/18 21:12:21;;;;;;;6.47;4.72;;;;;;;;;;10414023;28;20034;-86
2021/12/18 21:17:22;;;;;;;4.80;4.18;;;;;;;;;;10423458;28;20033;-85
2021/12/18 21:22:24;;;;;;;4.43;3.53;;;;;;;;;;10417087;28;20506;-84
2021/12/18 21:27:25;;;;;;;2.80;2.25;;;;;;;;;;10415996;28;20068;-84
2021/12/18 21:32:26;;;;;;;4.85;3.92;;;;;;;;;;10415875;28;20045;-83
2021/12/18 21:37:27;;;;;;;3.03;2.40;;;;;;;;;;10413433;28;20480;-84
2021/12/18 21:42:28;;;;;;;4.00;2.83;;;;;;;;;;10414380;28;20041;-85
2021/12/18 21:47:29;;;;;;;3.65;2.97;;;;;;;;;;10414583;28;20038;-84
2021/12/18 21:52:30;;;;;;;4.85;3.53;;;;;;;;;;10414904;28;20077;-85
2021/12/18 21:57:31;;;;;;;2.97;2.40;;;;;;;;;;10411964;28;20108;-85
2021/12/18 22:02:32;;;;;;;3.38;3.08;;;;;;;;;;10415042;28;20037;-85
2021/12/18 22:07:33;;;;;;;3.83;3.35;;;;;;;;;;10413357;28;20065;-85
2021/12/18 22:12:34;;;;;;;4.05;3.50;;;;;;;;;;10413252;28;20033;-86
2021/12/18 22:17:35;;;;;;;4.47;3.75;;;;;;;;;;10412476;28;20088;-85
2021/12/18 22:22:36;;;;;;;3.35;2.70;;;;;;;;;;10411771;28;20044;-85
2021/12/18 22:27:37;;;;;;;3.08;2.75;;;;;;;;;;10412285;28;20040;-85
2021/12/18 22:32:38;;;;;;;2.90;2.50;;;;;;;;;;10428483;28;20044;-85
2021/12/18 22:37:39;;;;;;;8.32;5.85;;;;;;;;;;10415167;28;20048;-85
2021/12/18 22:42:40;;;;;;;4.20;3.80;;;;;;;;;;10415475;28;20049;-84
2021/12/18 22:47:43;;;;;;;4.15;3.45;;;;;;;;;;10417039;28;20501;-85
2021/12/18 22:52:44;;;;;;;4.18;3.50;;;;;;;;;;10415505;28;20033;-85
2021/12/18 22:57:46;;;;;;;10.75;9.65;;;;;;;;;;10435319;28;20042;-85
2021/12/18 23:02:47;;;;;;;5.07;4.57;;;;;;;;;;10420501;28;20592;-84
2021/12/18 23:07:49;;;;;;;8.60;7.63;;;;;;;;;;10417031;28;20045;-84
2021/12/18 23:13:07;;;;;;;3.90;3.15;;;;;;;;;;10416049;28;20030;-85
2021/12/18 23:18:21;;;;;;;3.97;2.35;;;;;;;;;;10412673;28;20069;-85
2021/12/18 23:23:25;;;;;;;8.05;7.15;;;;;;;;;;10419543;28;20069;-85
2021/12/18 23:28:26;;;;;;;7.07;6.38;;;;;;;;;;10419545;28;20475;-85
2021/12/18 23:33:30;;;;;;;6.90;5.63;;;;;;;;;;10422219;28;20061;-84
2021/12/18 23:38:32;;;;;;;11.93;9.70;;;;;;;;;;10439274;28;20083;-85
2021/12/18 23:48:37;;;;;;;6.95;5.82;;;;;;;;;;10440392;28;20040;-84
2021/12/18 23:53:38;;;;;;;6.10;4.88;;;;;;;;;;10440032;28;20037;-84
2021/12/18 23:58:39;;;;;;;7.68;6.40;;;;;;;;;;10420281;28;20472;-84
